Kane, PA

3:53 PM EDT on August 01, 2015 (GMT -0400)
Division Street Ext. | | Change Station
CLOSE
Current Station
Personal Weather Station
Location: Mt Jewett, PA
Elevation: 2245 ft
Nearby Weather Stations

Elev 2245 ft 41.70 °N, 78.64 °W | Updated 1 minute ago

Partly Cloudy
Partly Cloudy
74.9 °F
Feels Like 78 °F
N
1.6
Wind Variable Wind from SW
Gusts 3.1 mph

Today
High -- | Low -- °F
--% Chance of Precip.
Yesterday
High -- | Low -- °F
Precip. -- in
6:09 AM 8:33 PM
Full, 97% visible
Pressure 29.88 in
Visibility 10.0 miles
Clouds Few 5000 ft
Scattered Clouds 7500 ft
Scattered Clouds 8500 ft
Heat Index 78 °F
Dew Point 54 °F
Humidity 49%
Rainfall 0.00 in
Snow Depth Not available.
UV 8 out of 12
Pollen 7.80 out of 12
Air Quality Not available.
Flu Activity Not available.
METAR KBFD 011853Z AUTO 30010KT 10SM FEW050 SCT075 SCT085 24/10 A2993 RMK AO2 SLP119 T02390100 TSNO

More Conditions Fewer Conditions

Pressure 29.88 in
Visibility 10.0 miles
Clouds Few 5000 ft
Scattered Clouds 7500 ft
Scattered Clouds 8500 ft
Heat Index 78 °F
Dew Point 54 °F
Humidity 49%
Rainfall 0.00 in
Snow Depth Not available.
UV 8 out of 12
Pollen 7.80 out of 12
Air Quality Not available.
Flu Activity Not available.
METAR KBFD 011853Z AUTO 30010KT 10SM FEW050 SCT075 SCT085 24/10 A2993 RMK AO2 SLP119 T02390100 TSNO

More Conditions Fewer Conditions

10-Day Weather Forecast

×

Almanac

Astronomy

Aug. 01, 2015 Rise Set
Actual Time
Civil Twilight
Nautical Twilight
Astronomical Twilight
Moon
Length of Visible Light
Length of Day
Tomorrow will be .
, % of the Moon is Illuminated

Today's Extremes

State Highs State Lows

Community

WunderPhotos

Upload Photos

1,843,043 photos uploaded!

WunderBlogs® & News

Nearby

Air Quality

  Air Quality AQ Index Pollutant
Not available.

Snow Depth

Station Depth Elevation

Earthquake Activity

City Distance Mag. Time & Date
Minimum magnitude displayed is 2.5.

Coastal Water Temperatures

Place Temperature

Stations

Nearby Weather Stations

Station Location Temp. Windchill Dew Point Humidity Wind Precip. Elev Updated Type